Time;durP1;ratioP1;P1;durP2;ratioP2;P2;SDS_P1;SDS_P2;PMS_P1;PMS_P2;Temp;Humidity;BMP_temperature;BMP_pressure;BME280_temperature;BME280_humidity;BME280_pressure;Samples;Min_cycle;Max_cycle;Signal;HPM_P1;HPM_P2
2022/08/02 00:00:11;;;;;;;27.50;23.50;;;12.30;99.90;;;;;;5056267;28;20124;-73
2022/08/02 00:02:38;;;;;;;32.08;26.35;;;12.20;99.90;;;;;;5034134;28;20049;-74
2022/08/02 00:05:05;;;;;;;28.63;24.67;;;12.30;99.90;;;;;;5062685;28;20071;-73
2022/08/02 00:07:33;;;;;;;27.10;23.73;;;12.30;99.90;;;;;;5029421;28;20076;-74
2022/08/02 00:10:09;;;;;;;24.63;20.88;;;12.10;99.90;;;;;;5068729;28;20056;-73
2022/08/02 00:12:36;;;;;;;29.45;20.73;;;12.00;99.90;;;;;;5048703;28;20095;-73
2022/08/02 00:15:06;;;;;;;24.08;20.75;;;12.00;99.90;;;;;;5030442;28;20141;-74
2022/08/02 00:17:33;;;;;;;22.88;20.75;;;11.90;99.90;;;;;;5069689;28;20078;-74
2022/08/02 00:20:00;;;;;;;26.17;23.02;;;11.80;99.90;;;;;;5068526;28;20052;-74
2022/08/02 00:22:27;;;;;;;26.15;22.25;;;11.80;99.90;;;;;;5040928;28;20501;-73
2022/08/02 00:24:54;;;;;;;25.42;22.77;;;11.80;99.90;;;;;;5056602;28;20541;-74
2022/08/02 00:27:21;;;;;;;24.25;21.63;;;11.70;99.90;;;;;;5068426;28;20160;-74
2022/08/02 00:29:49;;;;;;;24.85;22.42;;;11.60;99.90;;;;;;5058672;28;20043;-73
2022/08/02 00:32:21;;;;;;;33.33;25.77;;;11.60;99.90;;;;;;5043991;28;20044;-73
2022/08/02 00:34:48;;;;;;;41.85;27.27;;;11.70;99.90;;;;;;5066806;28;20184;-73
2022/08/02 00:37:15;;;;;;;34.33;26.17;;;11.90;99.90;;;;;;5030974;28;20055;-74
2022/08/02 00:39:42;;;;;;;29.70;25.30;;;11.90;99.90;;;;;;5046899;28;20036;-74
2022/08/02 00:42:09;;;;;;;29.83;23.77;;;11.90;99.90;;;;;;5039359;28;20234;-74
2022/08/02 00:44:37;;;;;;;24.98;21.42;;;12.00;99.90;;;;;;5054678;28;20416;-74
2022/08/02 00:47:04;;;;;;;25.23;20.70;;;11.90;99.90;;;;;;5042576;28;20576;-74
2022/08/02 00:49:31;;;;;;;24.55;18.85;;;12.00;99.90;;;;;;5058268;28;20110;-74
2022/08/02 00:51:59;;;;;;;30.58;23.92;;;12.00;99.90;;;;;;5068219;28;20054;-74
2022/08/02 00:54:26;;;;;;;33.42;25.30;;;12.00;99.90;;;;;;5069731;28;20047;-74
2022/08/02 00:56:54;;;;;;;24.83;21.88;;;12.00;99.90;;;;;;5036703;28;20049;-74
2022/08/02 00:59:21;;;;;;;19.60;17.73;;;12.00;99.90;;;;;;5040837;28;20098;-73
2022/08/02 01:01:48;;;;;;;21.85;19.63;;;11.80;99.90;;;;;;5063565;28;20359;-74
2022/08/02 01:04:27;;;;;;;22.92;20.73;;;11.90;99.90;;;;;;5038725;28;20045;-74
2022/08/02 01:07:03;;;;;;;26.90;22.42;;;11.90;99.90;;;;;;5042140;28;20529;-73
2022/08/02 01:09:40;;;;;;;25.00;20.65;;;11.80;99.90;;;;;;5060247;28;20068;-73
2022/08/02 01:12:07;;;;;;;23.52;21.02;;;12.00;99.90;;;;;;5053785;28;20060;-73
2022/08/02 01:14:36;;;;;;;25.10;22.30;;;12.10;99.90;;;;;;5049858;28;20058;-74
2022/08/02 01:17:16;;;;;;;27.73;23.27;;;12.00;99.90;;;;;;5062031;28;20448;-74
2022/08/02 01:20:08;;;;;;;27.05;22.05;;;11.80;99.90;;;;;;5061185;28;20044;-73
2022/08/02 01:22:58;;;;;;;25.42;22.80;;;11.70;99.90;;;;;;5050059;28;20106;-74
2022/08/02 01:25:33;;;;;;;27.23;22.27;;;11.80;99.90;;;;;;5042543;28;20128;-74
2022/08/02 01:28:18;;;;;;;25.75;22.83;;;11.80;99.90;;;;;;5062827;28;20089;-74
2022/08/02 01:30:47;;;;;;;;;;;11.70;99.90;;;;;;5065684;28;20072;-73
2022/08/02 01:33:18;;;;;;;35.58;26.02;;;11.80;99.90;;;;;;5038609;28;19925;-73
2022/08/02 01:35:54;;;;;;;35.05;23.35;;;11.90;99.90;;;;;;5059621;28;20155;-74
2022/08/02 01:38:26;;;;;;;35.72;25.08;;;11.80;99.90;;;;;;5081046;22;20096;-74
2022/08/02 01:40:55;;;;;;;35.90;27.13;;;11.80;99.90;;;;;;5026293;28;20036;-76
2022/08/02 01:43:25;;;;;;;37.80;28.17;;;11.90;99.90;;;;;;5048716;28;20106;-75
2022/08/02 01:45:52;;;;;;;39.85;30.00;;;11.80;99.90;;;;;;5049820;28;20567;-75
2022/08/02 01:48:20;;;;;;;41.40;28.70;;;11.80;99.90;;;;;;5048798;28;20048;-75
2022/08/02 01:50:48;;;;;;;37.28;28.08;;;11.90;99.90;;;;;;5043586;28;20241;-76
2022/08/02 01:53:17;;;;;;;34.20;26.20;;;11.80;99.90;;;;;;5010881;28;20049;-76
2022/08/02 01:55:47;;;;;;;37.67;25.42;;;11.70;99.90;;;;;;5017314;28;20482;-74
2022/08/02 01:58:27;;;;;;;40.85;27.98;;;11.60;99.90;;;;;;5026075;28;20517;-76
2022/08/02 02:00:56;;;;;;;42.42;27.85;;;11.60;99.90;;;;;;5026005;28;20044;-75
2022/08/02 02:03:25;;;;;;;42.45;29.10;;;11.60;99.90;;;;;;5046343;28;20464;-74
2022/08/02 02:05:57;;;;;;;41.38;29.55;;;11.70;99.90;;;;;;5028937;28;20040;-73
2022/08/02 02:08:37;;;;;;;44.90;28.60;;;11.70;99.90;;;;;;5026664;28;20048;-74
2022/08/02 02:11:05;;;;;;;34.88;26.17;;;11.70;99.90;;;;;;5029946;28;20564;-73
2022/08/02 02:13:53;;;;;;;25.52;22.52;;;11.60;99.90;;;;;;5047244;28;20040;-73
2022/08/02 02:16:21;;;;;;;24.58;21.70;;;11.40;99.90;;;;;;5022819;28;20222;-73
2022/08/02 02:18:50;;;;;;;28.70;23.63;;;11.40;99.90;;;;;;5048472;28;20049;-73
2022/08/02 02:21:17;;;;;;;28.85;22.48;;;11.50;99.90;;;;;;5021799;28;20123;-73
2022/08/02 02:23:44;;;;;;;32.97;23.83;;;11.40;99.90;;;;;;5046977;28;20040;-74
2022/08/02 02:26:13;;;;;;;33.13;26.90;;;11.40;99.90;;;;;;5020858;28;20094;-73
2022/08/02 02:28:46;;;;;;;31.35;24.10;;;11.40;99.90;;;;;;5030508;28;20070;-74
2022/08/02 02:31:17;;;;;;;31.73;24.13;;;11.30;99.90;;;;;;5045919;28;20065;-73
2022/08/02 02:34:00;;;;;;;33.47;25.02;;;11.30;99.90;;;;;;5044235;28;20040;-73
2022/08/02 02:36:28;;;;;;;26.65;23.00;;;11.30;99.90;;;;;;5004989;28;20303;-73
2022/08/02 02:38:58;;;;;;;28.80;23.73;;;11.20;99.90;;;;;;5014330;28;20045;-74
2022/08/02 02:41:27;;;;;;;27.15;23.48;;;11.10;99.90;;;;;;5030785;28;20041;-74
2022/08/02 02:43:58;;;;;;;30.02;22.58;;;11.00;99.90;;;;;;5030984;28;20554;-74
2022/08/02 02:46:27;;;;;;;31.38;22.63;;;11.00;99.90;;;;;;5024061;28;20044;-74
2022/08/02 02:48:55;;;;;;;35.58;25.35;;;10.90;99.90;;;;;;5011026;28;20629;-72
2022/08/02 02:51:23;;;;;;;31.52;26.08;;;11.00;99.90;;;;;;5020080;28;21083;-73
2022/08/02 02:53:51;;;;;;;29.55;25.40;;;10.90;99.90;;;;;;5051337;28;20572;-74
2022/08/02 02:56:40;;;;;;;29.77;24.70;;;10.90;99.90;;;;;;5025679;28;20186;-73
2022/08/02 02:59:08;;;;;;;29.13;23.80;;;10.90;99.90;;;;;;5042541;28;20733;-74
2022/08/02 03:01:36;;;;;;;35.28;24.85;;;10.80;99.90;;;;;;5040969;28;20090;-73
2022/08/02 03:04:25;;;;;;;34.65;26.23;;;10.70;99.90;;;;;;5042833;28;20709;-74
2022/08/02 03:06:52;;;;;;;28.45;24.08;;;10.70;99.90;;;;;;5009493;28;20088;-74
2022/08/02 03:09:19;;;;;;;32.45;24.75;;;10.60;99.90;;;;;;5016379;28;20231;-74
2022/08/02 03:11:47;;;;;;;28.80;24.05;;;10.70;99.90;;;;;;5028151;28;20267;-73
2022/08/02 03:14:14;;;;;;;33.33;25.27;;;10.70;99.90;;;;;;5026811;28;20079;-73
2022/08/02 03:16:47;;;;;;;34.28;27.20;;;10.70;99.90;;;;;;5014216;28;20044;-74
2022/08/02 03:19:14;;;;;;;28.92;25.13;;;10.80;99.90;;;;;;5027863;28;20136;-74
2022/08/02 03:21:42;;;;;;;36.53;26.67;;;10.90;99.90;;;;;;5027297;28;20086;-74
2022/08/02 03:24:10;;;;;;;45.08;30.20;;;10.90;99.90;;;;;;5028698;28;20500;-73
2022/08/02 03:26:37;;;;;;;44.33;29.13;;;11.00;99.90;;;;;;5031827;28;20616;-74
2022/08/02 03:29:05;;;;;;;36.45;26.77;;;11.00;99.90;;;;;;5048208;28;20049;-75
2022/08/02 03:31:40;;;;;;;37.03;26.40;;;10.90;99.90;;;;;;5035102;28;20328;-74
2022/08/02 03:34:07;;;;;;;38.10;28.05;;;10.80;99.90;;;;;;5047629;28;20041;-72
2022/08/02 03:36:36;;;;;;;33.67;25.45;;;10.90;99.90;;;;;;5022795;28;20052;-74
2022/08/02 03:39:03;;;;;;;30.20;24.77;;;10.80;99.90;;;;;;5030860;28;20052;-72
2022/08/02 03:41:32;;;;;;;43.92;29.02;;;10.90;99.90;;;;;;5030224;28;20068;-74
2022/08/02 03:43:59;;;;;;;43.88;30.10;;;10.80;99.90;;;;;;5019898;28;20036;-75
2022/08/02 03:46:26;;;;;;;50.17;32.50;;;10.80;99.90;;;;;;5043200;28;20378;-75
2022/08/02 03:48:54;;;;;;;60.20;33.17;;;10.80;99.90;;;;;;5034268;28;20041;-74
2022/08/02 03:51:22;;;;;;;35.05;25.05;;;10.90;99.90;;;;;;5052383;28;20645;-74
2022/08/02 03:53:49;;;;;;;47.35;28.77;;;10.70;99.90;;;;;;5031071;28;20041;-75
2022/08/02 03:56:15;;;;;;;39.78;26.50;;;10.80;99.90;;;;;;5027631;28;20579;-72
2022/08/02 03:58:42;;;;;;;54.53;29.85;;;11.00;99.90;;;;;;5032421;28;20053;-74
2022/08/02 04:01:15;;;;;;;34.40;24.35;;;10.90;99.90;;;;;;5026178;28;20473;-74
2022/08/02 04:03:42;;;;;;;28.98;23.38;;;10.80;99.90;;;;;;5036257;28;20498;-74
2022/08/02 04:06:09;;;;;;;21.70;19.30;;;10.70;99.90;;;;;;5010503;28;20595;-75
2022/08/02 04:08:36;;;;;;;21.95;19.63;;;10.60;99.90;;;;;;5027429;28;20098;-73
2022/08/02 04:13:51;;;;;;;27.88;22.95;;;10.60;99.90;;;;;;5025397;28;20544;-74
2022/08/02 04:16:34;;;;;;;29.67;23.92;;;10.50;99.90;;;;;;5024963;28;20914;-73
2022/08/02 04:19:04;;;;;;;29.58;24.45;;;10.70;99.90;;;;;;5022735;28;20114;-73
2022/08/02 04:21:35;;;;;;;32.17;25.50;;;10.80;99.90;;;;;;5045118;28;20048;-75
2022/08/02 04:24:25;;;;;;;33.17;24.77;;;10.70;99.90;;;;;;5037267;28;20048;-72
2022/08/02 04:26:56;;;;;;;;;;;10.70;99.90;;;;;;5023612;28;20084;-74
2022/08/02 04:29:33;;;;;;;25.15;22.40;;;10.70;99.90;;;;;;5046039;28;19920;-74
2022/08/02 04:32:01;;;;;;;24.23;21.70;;;10.70;99.90;;;;;;5030216;28;20048;-74
2022/08/02 04:34:29;;;;;;;25.83;21.35;;;10.90;99.90;;;;;;5026481;28;20044;-74
2022/08/02 04:36:57;;;;;;;34.75;24.52;;;11.00;99.90;;;;;;5048231;28;20044;-74
2022/08/02 04:39:24;;;;;;;24.35;21.08;;;10.90;99.90;;;;;;5047628;28;20056;-74
2022/08/02 04:41:51;;;;;;;24.83;22.23;;;10.90;99.90;;;;;;5026984;28;20060;-73
2022/08/02 04:44:23;;;;;;;26.58;23.75;;;11.00;99.90;;;;;;5030917;28;21217;-75
2022/08/02 04:46:50;;;;;;;28.65;25.05;;;11.00;99.90;;;;;;5024111;28;20033;-74
2022/08/02 04:49:17;;;;;;;24.88;21.77;;;11.00;99.90;;;;;;5045628;28;20123;-72
2022/08/02 04:51:44;;;;;;;27.55;23.13;;;11.00;99.90;;;;;;5050168;28;20410;-74
2022/08/02 04:54:11;;;;;;;28.38;23.27;;;11.10;99.90;;;;;;5028508;28;20048;-73
2022/08/02 04:56:38;;;;;;;26.25;23.58;;;11.30;99.90;;;;;;5030049;28;20060;-72
2022/08/02 04:59:06;;;;;;;25.05;22.38;;;11.30;99.90;;;;;;5026870;28;20090;-71
2022/08/02 05:01:34;;;;;;;26.58;22.70;;;11.30;99.90;;;;;;5034110;28;20872;-75
2022/08/02 05:04:01;;;;;;;25.85;23.08;;;11.40;99.90;;;;;;5027454;28;20400;-76
2022/08/02 05:06:28;;;;;;;27.55;23.60;;;11.40;99.90;;;;;;5019991;28;20340;-76
2022/08/02 05:08:54;;;;;;;31.40;24.63;;;11.40;99.90;;;;;;5052346;28;20112;-75
2022/08/02 05:11:23;;;;;;;26.30;23.52;;;11.50;99.90;;;;;;5018660;28;20098;-76
2022/08/02 05:14:04;;;;;;;24.33;21.73;;;11.50;99.90;;;;;;5033134;28;20040;-75
2022/08/02 05:16:31;;;;;;;25.70;23.05;;;11.50;99.90;;;;;;5030375;28;20044;-75
2022/08/02 05:19:01;;;;;;;25.00;22.38;;;11.60;99.90;;;;;;5028489;28;20261;-76
2022/08/02 05:21:30;;;;;;;25.33;22.63;;;11.80;99.90;;;;;;5029471;28;20166;-75
2022/08/02 05:23:57;;;;;;;23.45;20.80;;;11.90;99.90;;;;;;5049349;28;20070;-75
2022/08/02 05:26:23;;;;;;;23.27;20.88;;;12.20;99.90;;;;;;5019748;28;20069;-76
2022/08/02 05:28:50;;;;;;;23.38;20.85;;;12.40;99.90;;;;;;5051584;28;20537;-75
2022/08/02 05:31:17;;;;;;;25.85;21.55;;;12.60;99.90;;;;;;5023366;28;20041;-74
2022/08/02 05:33:44;;;;;;;24.23;21.75;;;12.70;99.90;;;;;;5052698;28;20040;-76
2022/08/02 05:36:11;;;;;;;22.85;20.65;;;12.60;99.90;;;;;;5028685;28;20041;-76
2022/08/02 05:38:37;;;;;;;23.45;21.13;;;12.60;99.90;;;;;;5049263;28;20053;-76
2022/08/02 05:41:05;;;;;;;24.67;22.10;;;12.70;99.90;;;;;;5042276;28;20529;-76
2022/08/02 05:43:32;;;;;;;24.38;21.80;;;12.70;99.90;;;;;;5029908;28;20043;-76
2022/08/02 05:45:59;;;;;;;23.95;21.52;;;12.80;99.90;;;;;;5052921;28;20529;-76
2022/08/02 05:48:26;;;;;;;22.77;20.77;;;12.90;99.90;;;;;;5030600;28;20068;-75
2022/08/02 05:51:03;;;;;;;23.88;21.50;;;13.10;99.90;;;;;;5042853;28;20045;-73
2022/08/02 05:53:48;;;;;;;21.50;19.52;;;13.20;99.90;;;;;;5029450;28;20045;-76
2022/08/02 05:56:23;;;;;;;23.20;20.05;;;13.30;99.90;;;;;;5045734;28;20041;-76
2022/08/02 05:58:57;;;;;;;28.35;23.27;;;13.40;99.90;;;;;;5030373;28;20071;-75
2022/08/02 06:01:32;;;;;;;29.48;22.65;;;13.70;99.90;;;;;;5046748;28;20487;-75
2022/08/02 06:04:04;;;;;;;31.52;24.17;;;13.90;99.90;;;;;;5027473;28;20052;-75
2022/08/02 06:06:32;;;;;;;28.50;22.10;;;14.00;99.90;;;;;;5042760;28;20483;-76
2022/08/02 06:09:03;;;;;;;32.67;24.40;;;14.30;99.90;;;;;;5023259;28;20134;-74
2022/08/02 06:11:37;;;;;;;28.85;22.95;;;14.60;99.90;;;;;;5020124;28;20048;-75
2022/08/02 06:14:05;;;;;;;30.23;22.97;;;14.90;99.90;;;;;;5032296;28;20064;-74
2022/08/02 06:16:33;;;;;;;28.98;21.42;;;15.20;99.90;;;;;;5024573;28;20364;-74
2022/08/02 06:19:10;;;;;;;23.23;19.25;;;15.60;99.90;;;;;;5040064;28;20136;-72
2022/08/02 06:21:41;;;;;;;23.38;18.52;;;16.00;99.90;;;;;;5040722;28;20141;-75
2022/08/02 06:24:31;;;;;;;20.42;18.25;;;16.30;99.90;;;;;;5032595;28;20064;-75
2022/08/02 06:26:59;;;;;;;20.20;18.38;;;16.80;99.90;;;;;;5039599;28;20048;-73
2022/08/02 06:29:27;;;;;;;21.40;19.40;;;17.20;99.90;;;;;;5039942;28;20500;-74
2022/08/02 06:31:54;;;;;;;21.63;19.55;;;17.50;99.90;;;;;;5041988;28;20107;-75
2022/08/02 06:34:20;;;;;;;23.38;21.17;;;17.70;99.90;;;;;;5039534;28;20080;-74
2022/08/02 06:36:57;;;;;;;23.05;21.13;;;17.80;99.90;;;;;;5023122;28;20473;-73
2022/08/02 06:39:46;;;;;;;23.33;21.23;;;18.00;99.90;;;;;;5023487;28;20522;-74
2022/08/02 06:42:20;;;;;;;24.48;22.48;;;18.30;99.90;;;;;;5047897;28;20045;-73
2022/08/02 06:44:54;;;;;;;23.67;21.98;;;18.60;99.90;;;;;;5003849;28;20037;-74
2022/08/02 06:47:25;;;;;;;26.60;24.42;;;19.10;99.90;;;;;;5025055;28;20037;-74
2022/08/02 06:49:51;;;;;;;25.67;23.73;;;19.60;99.90;;;;;;5033552;28;20426;-74
2022/08/02 06:52:26;;;;;;;26.65;24.40;;;20.10;99.90;;;;;;5044093;28;20144;-74
2022/08/02 06:55:00;;;;;;;26.95;24.77;;;20.50;99.90;;;;;;5027681;28;20044;-74
2022/08/02 06:57:28;;;;;;;25.75;23.77;;;21.00;99.90;;;;;;5041965;28;20888;-75
2022/08/02 06:59:56;;;;;;;27.10;25.13;;;21.40;99.90;;;;;;5049717;28;20041;-77
2022/08/02 07:02:23;;;;;;;27.55;25.63;;;21.40;99.90;;;;;;5033753;28;20037;-74
2022/08/02 07:04:50;;;;;;;26.95;25.00;;;21.60;99.90;;;;;;5047317;28;20556;-74
2022/08/02 07:07:16;;;;;;;28.25;26.35;;;21.60;99.90;;;;;;5044725;28;20098;-73
2022/08/02 07:09:43;;;;;;;28.05;26.08;;;21.70;99.90;;;;;;5025451;28;20044;-73
2022/08/02 07:12:28;;;;;;;30.27;28.17;;;21.70;99.90;;;;;;5029754;28;20053;-73
2022/08/02 07:14:55;;;;;;;30.00;27.75;;;21.80;99.90;;;;;;5056772;28;20460;-73
2022/08/02 07:17:22;;;;;;;28.13;26.20;;;21.90;99.90;;;;;;5051858;28;20135;-74
2022/08/02 07:19:49;;;;;;;28.90;26.70;;;22.00;99.90;;;;;;5040863;28;20048;-74
2022/08/02 07:22:17;;;;;;;29.83;27.27;;;22.20;99.90;;;;;;5047344;28;20470;-75
2022/08/02 07:24:44;;;;;;;29.42;27.50;;;22.10;99.90;;;;;;5035618;28;20409;-75
2022/08/02 07:27:10;;;;;;;28.98;26.88;;;21.90;99.90;;;;;;5033055;28;20075;-73
2022/08/02 07:29:39;;;;;;;29.60;27.70;;;21.90;99.90;;;;;;5024141;28;20245;-74
2022/08/02 07:32:25;;;;;;;28.67;26.83;;;22.00;99.90;;;;;;5037845;28;20045;-74
2022/08/02 07:34:53;;;;;;;28.85;26.90;;;22.10;99.90;;;;;;5035628;28;20049;-75
2022/08/02 07:37:23;;;;;;;27.38;25.45;;;22.00;99.90;;;;;;5022365;28;20040;-75
2022/08/02 07:40:11;;;;;;;27.05;25.45;;;22.20;99.90;;;;;;5027578;28;20064;-76
2022/08/02 07:42:44;;;;;;;24.92;23.35;;;22.20;99.90;;;;;;5023571;28;20065;-76
2022/08/02 07:45:12;;;;;;;26.77;25.05;;;22.30;99.90;;;;;;5038810;28;20122;-76
2022/08/02 07:47:40;;;;;;;26.50;24.83;;;22.30;99.90;;;;;;5025261;28;20045;-76
2022/08/02 07:50:08;;;;;;;28.05;26.25;;;22.10;99.90;;;;;;5012705;28;20047;-76
2022/08/02 07:52:36;;;;;;;26.52;24.90;;;21.80;99.90;;;;;;4991462;28;20400;-76
2022/08/02 07:55:03;;;;;;;26.33;24.35;;;22.00;99.90;;;;;;4995296;28;20045;-77
2022/08/02 07:57:30;;;;;;;27.80;26.20;;;22.00;99.90;;;;;;5002265;28;20049;-76
2022/08/02 07:59:57;;;;;;;26.55;24.83;;;22.10;99.90;;;;;;5006398;28;20114;-74
2022/08/02 08:02:24;;;;;;;28.48;26.67;;;22.20;99.90;;;;;;4972056;28;20116;-76
2022/08/02 08:04:51;;;;;;;26.08;24.17;;;22.40;99.90;;;;;;5005905;28;20046;-76
2022/08/02 08:07:19;;;;;;;27.35;25.45;;;22.50;99.90;;;;;;5006232;28;20057;-75
2022/08/02 08:09:46;;;;;;;27.00;25.05;;;22.50;99.90;;;;;;5010980;28;20091;-77
2022/08/02 08:12:15;;;;;;;25.08;23.48;;;22.50;99.90;;;;;;5011238;28;20065;-78
2022/08/02 08:14:43;;;;;;;24.88;23.30;;;22.50;99.90;;;;;;4996703;28;20133;-77
2022/08/02 08:17:10;;;;;;;24.00;22.60;;;22.80;99.90;;;;;;4997755;28;20123;-75
2022/08/02 08:19:37;;;;;;;24.08;22.38;;;23.20;99.90;;;;;;4995161;28;20705;-78
2022/08/02 08:22:21;;;;;;;24.60;23.15;;;23.30;99.90;;;;;;5001783;28;20120;-78
2022/08/02 08:24:48;;;;;;;24.80;23.27;;;23.40;99.90;;;;;;5012837;28;20049;-78
2022/08/02 08:27:17;;;;;;;23.95;22.45;;;23.50;99.90;;;;;;4998386;28;20589;-77
2022/08/02 08:29:45;;;;;;;25.33;23.73;;;23.70;99.90;;;;;;4991857;28;20431;-78
2022/08/02 08:32:13;;;;;;;26.15;24.17;;;23.50;99.90;;;;;;5019852;28;20117;-72
2022/08/02 08:34:45;;;;;;;23.80;22.10;;;23.30;99.90;;;;;;5005024;28;20259;-75
2022/08/02 08:37:12;;;;;;;22.77;21.33;;;23.40;99.90;;;;;;5008126;28;20053;-74
2022/08/02 08:39:47;;;;;;;23.50;21.98;;;23.60;99.90;;;;;;4987021;28;20135;-76
2022/08/02 08:42:29;;;;;;;24.80;23.08;;;23.40;99.90;;;;;;5009215;28;20041;-75
2022/08/02 08:44:56;;;;;;;24.25;22.48;;;23.20;99.90;;;;;;5009899;28;20699;-77
2022/08/02 08:47:41;;;;;;;22.55;21.00;;;23.50;99.90;;;;;;5010015;28;20057;-76
2022/08/02 08:50:17;;;;;;;23.05;21.50;;;23.80;99.90;;;;;;4997203;28;20076;-77
2022/08/02 08:52:59;;;;;;;24.60;22.88;;;24.10;99.90;;;;;;4985525;28;20053;-75
2022/08/02 08:55:27;;;;;;;25.00;23.40;;;24.20;99.90;;;;;;5008489;28;20054;-75
2022/08/02 08:57:55;;;;;;;24.50;22.98;;;24.20;99.90;;;;;;4996050;28;20400;-76
2022/08/02 09:00:22;;;;;;;25.30;23.75;;;24.50;99.90;;;;;;4993825;28;20049;-76
2022/08/02 09:02:49;;;;;;;24.00;22.50;;;24.60;99.90;;;;;;4998218;28;20076;-79
2022/08/02 09:05:17;;;;;;;25.00;23.25;;;24.90;99.90;;;;;;5025907;28;20104;-76
2022/08/02 09:07:48;;;;;;;23.90;22.52;;;25.00;99.90;;;;;;5012138;28;20045;-77
2022/08/02 09:10:34;;;;;;;24.70;23.20;;;25.00;99.90;;;;;;5006069;28;20103;-78
2022/08/02 09:13:05;;;;;;;24.67;23.17;;;24.90;99.90;;;;;;5014902;28;20046;-77
2022/08/02 09:15:57;;;;;;;23.48;22.02;;;24.60;99.90;;;;;;4999766;28;20120;-78
2022/08/02 09:18:38;;;;;;;23.02;21.73;;;24.60;99.90;;;;;;5007165;28;20164;-77
2022/08/02 09:21:07;;;;;;;24.17;22.77;;;24.80;99.90;;;;;;4997113;28;20095;-77
2022/08/02 09:23:36;;;;;;;23.65;22.30;;;24.80;99.90;;;;;;5004899;28;20080;-78
2022/08/02 09:26:08;;;;;;;22.90;21.65;;;25.00;99.90;;;;;;5018847;28;20048;-77
2022/08/02 09:28:39;;;;;;;22.48;21.17;;;25.30;99.90;;;;;;5017560;28;20490;-78
2022/08/02 09:31:12;;;;;;;24.67;23.10;;;25.80;99.90;;;;;;4980734;28;20108;-76
2022/08/02 09:33:40;;;;;;;25.20;23.60;;;26.10;99.90;;;;;;5017889;28;20132;-78
2022/08/02 09:36:12;;;;;;;24.38;22.88;;;26.20;99.90;;;;;;5011338;28;20768;-77
2022/08/02 09:38:50;;;;;;;23.45;22.15;;;26.40;99.90;;;;;;4986106;28;20057;-78
2022/08/02 09:41:23;;;;;;;24.13;22.48;;;26.50;99.90;;;;;;5007608;28;20415;-77
2022/08/02 09:43:51;;;;;;;22.77;21.42;;;26.50;99.90;;;;;;4994439;28;20037;-77
2022/08/02 09:46:38;;;;;;;24.02;22.63;;;26.20;99.90;;;;;;5014924;28;20107;-76
2022/08/02 09:49:18;;;;;;;24.85;23.42;;;25.90;99.90;;;;;;5010904;28;20275;-77
2022/08/02 09:51:45;;;;;;;24.73;22.77;;;25.80;99.90;;;;;;4999714;28;20217;-75
2022/08/02 09:54:27;;;;;;;24.42;22.92;;;25.70;99.90;;;;;;5016482;28;20049;-77
2022/08/02 09:56:57;;;;;;;25.10;23.58;;;25.90;99.90;;;;;;4996537;28;20042;-74
2022/08/02 09:59:25;;;;;;;24.88;23.48;;;25.80;99.90;;;;;;4996406;28;20041;-76
2022/08/02 10:01:53;;;;;;;24.75;23.15;;;26.00;99.90;;;;;;4995729;28;20073;-77
2022/08/02 10:04:42;;;;;;;24.75;23.30;;;26.10;99.90;;;;;;5010443;28;20068;-76
2022/08/02 10:07:20;;;;;;;25.13;23.50;;;26.60;99.90;;;;;;5027147;28;20306;-76
2022/08/02 10:09:50;;;;;;;25.52;23.92;;;26.90;99.90;;;;;;5036649;28;20053;-76
2022/08/02 10:12:18;;;;;;;24.42;23.00;;;26.50;99.90;;;;;;5034868;28;20029;-75
2022/08/02 10:14:44;;;;;;;24.15;22.65;;;26.40;99.90;;;;;;5021253;28;20228;-76
2022/08/02 10:17:12;;;;;;;24.17;22.67;;;26.60;99.90;;;;;;5025501;28;20048;-75
2022/08/02 10:19:38;;;;;;;24.90;23.40;;;26.80;99.90;;;;;;5042675;28;20049;-76
2022/08/02 10:22:26;;;;;;;25.00;23.40;;;26.60;99.90;;;;;;5014272;28;20046;-75
2022/08/02 10:24:54;;;;;;;24.80;23.30;;;26.30;99.90;;;;;;5015326;28;20049;-77
2022/08/02 10:27:23;;;;;;;25.02;23.42;;;26.50;99.90;;;;;;5002002;28;20557;-77
2022/08/02 10:29:51;;;;;;;26.33;24.58;;;26.70;99.90;;;;;;5017864;28;20041;-77
2022/08/02 10:32:33;;;;;;;25.38;23.55;;;26.80;99.90;;;;;;5017770;28;20049;-78
2022/08/02 10:35:08;;;;;;;25.05;23.45;;;26.70;99.90;;;;;;4993360;28;20058;-79
2022/08/02 10:37:55;;;;;;;26.35;24.63;;;26.70;99.90;;;;;;4997898;28;20103;-77
2022/08/02 10:40:22;;;;;;;25.88;24.27;;;26.20;99.90;;;;;;4994965;28;20180;-77
2022/08/02 10:42:52;;;;;;;25.38;23.77;;;26.20;99.90;;;;;;4984559;28;20228;-76
2022/08/02 10:45:21;;;;;;;24.95;23.15;;;26.40;99.90;;;;;;4989544;28;20046;-76
2022/08/02 10:48:16;;;;;;;26.15;24.42;;;26.50;99.90;;;;;;4985313;28;20579;-78
2022/08/02 10:50:46;;;;;;;26.98;25.08;;;26.80;99.90;;;;;;4996995;28;20042;-77
2022/08/02 10:53:20;;;;;;;26.02;24.33;;;27.00;99.90;;;;;;5012274;28;20173;-77
2022/08/02 10:55:47;;;;;;;26.67;24.88;;;27.10;99.90;;;;;;4996694;28;20045;-77
2022/08/02 10:58:22;;;;;;;26.23;24.63;;;27.00;99.90;;;;;;5001106;28;20566;-77
2022/08/02 11:00:56;;;;;;;25.50;23.73;;;27.00;99.90;;;;;;5013207;28;20064;-77
2022/08/02 11:03:38;;;;;;;25.23;23.63;;;26.90;99.90;;;;;;5001683;28;20049;-78
2022/08/02 11:06:13;;;;;;;26.58;24.73;;;26.80;99.90;;;;;;5019295;28;20398;-78
2022/08/02 11:09:31;;;;;;;26.02;24.30;;;26.70;99.90;;;;;;5021345;28;20145;-77
2022/08/02 11:12:08;;;;;;;24.83;23.23;;;26.70;99.90;;;;;;5021425;28;20045;-78
2022/08/02 11:14:41;;;;;;;25.50;23.90;;;26.70;99.90;;;;;;5011522;28;20472;-77
2022/08/02 11:17:18;;;;;;;24.80;23.27;;;26.80;99.90;;;;;;4981906;28;20048;-77
2022/08/02 11:20:14;;;;;;;25.65;24.00;;;26.80;99.90;;;;;;5000186;28;20053;-75
2022/08/02 11:22:43;;;;;;;25.73;23.80;;;27.20;99.90;;;;;;5008548;28;20045;-76
2022/08/02 11:25:23;;;;;;;25.48;23.65;;;27.20;99.90;;;;;;4997324;28;20076;-77
2022/08/02 11:27:55;;;;;;;25.45;23.55;;;27.30;99.90;;;;;;4994092;28;20428;-77
2022/08/02 11:30:23;;;;;;;26.38;24.45;;;27.20;99.90;;;;;;5019125;28;20107;-77
2022/08/02 11:33:00;;;;;;;25.70;24.00;;;27.10;99.90;;;;;;5004792;28;20385;-76
2022/08/02 11:35:38;;;;;;;24.85;23.10;;;27.40;99.90;;;;;;5007042;28;20050;-77
2022/08/02 11:38:19;;;;;;;25.23;23.75;;;27.60;99.90;;;;;;5011132;28;20474;-77
2022/08/02 11:40:47;;;;;;;24.92;23.33;;;27.70;99.90;;;;;;4987060;28;20046;-76
2022/08/02 11:43:22;;;;;;;24.80;23.23;;;27.70;99.90;;;;;;5015125;28;20049;-76
2022/08/02 11:45:51;;;;;;;26.80;25.25;;;27.50;99.90;;;;;;5006863;28;20108;-78
2022/08/02 11:48:34;;;;;;;26.00;24.30;;;27.30;99.90;;;;;;5015119;28;20045;-75
2022/08/02 11:51:10;;;;;;;24.92;23.50;;;27.00;99.90;;;;;;5018047;28;20573;-79
2022/08/02 11:53:44;;;;;;;25.27;23.77;;;27.20;99.90;;;;;;4987626;28;21313;-78
2022/08/02 11:56:13;;;;;;;25.48;23.88;;;27.40;99.90;;;;;;5008739;28;20363;-78
2022/08/02 11:59:09;;;;;;;26.77;25.17;;;27.70;99.90;;;;;;5007886;28;20128;-79
2022/08/02 12:01:40;;;;;;;25.90;24.20;;;27.90;99.90;;;;;;5016499;28;20136;-78
2022/08/02 12:04:17;;;;;;;26.13;24.17;;;28.00;99.90;;;;;;5013670;28;20052;-79
2022/08/02 12:06:53;;;;;;;25.88;24.38;;;27.90;99.90;;;;;;5019839;28;20092;-78
2022/08/02 12:09:22;;;;;;;26.20;24.65;;;27.80;99.90;;;;;;4993509;28;20092;-79
2022/08/02 12:11:50;;;;;;;25.98;24.38;;;27.90;99.90;;;;;;5014077;28;20114;-79
2022/08/02 12:14:17;;;;;;;26.38;24.75;;;27.90;99.90;;;;;;5008515;28;20212;-78
2022/08/02 12:19:30;;;;;;;26.15;24.38;;;28.30;99.90;;;;;;5008161;28;20060;-79
2022/08/02 12:22:23;;;;;;;26.00;24.40;;;28.40;99.90;;;;;;5009950;28;20282;-78
2022/08/02 12:24:54;;;;;;;;;;;28.30;99.90;;;;;;5004927;28;20421;-74
2022/08/02 12:27:32;;;;;;;25.50;23.90;;;28.30;99.90;;;;;;4995738;28;19970;-79
2022/08/02 12:30:09;;;;;;;25.50;23.83;;;28.50;99.90;;;;;;5010962;28;20424;-77
2022/08/02 12:32:37;;;;;;;24.35;22.85;;;28.60;99.90;;;;;;5011061;28;20076;-76
2022/08/02 12:35:15;;;;;;;25.90;24.13;;;28.50;99.90;;;;;;5001074;28;20388;-78
2022/08/02 12:37:53;;;;;;;26.98;25.38;;;28.20;99.90;;;;;;4987688;28;20041;-77
2022/08/02 12:40:30;;;;;;;26.50;25.00;;;28.20;99.90;;;;;;5008538;28;20051;-78
2022/08/02 12:43:03;;;;;;;26.38;24.73;;;28.20;99.90;;;;;;4991054;28;20049;-79
2022/08/02 12:45:43;;;;;;;26.70;25.13;;;28.00;99.90;;;;;;5002228;28;20500;-78
2022/08/02 12:48:16;;;;;;;26.52;25.10;;;27.90;99.90;;;;;;5003441;28;20116;-78
2022/08/02 12:50:43;;;;;;;27.60;26.00;;;28.10;99.90;;;;;;5004666;28;20049;-76
2022/08/02 12:53:15;;;;;;;27.63;26.00;;;27.90;99.90;;;;;;5005061;28;20424;-77
2022/08/02 12:55:55;;;;;;;27.73;26.13;;;27.90;99.90;;;;;;4994111;28;20049;-78